Flight Track Log - Related Links

Times and Time Zones

All times are in EDT time to prevent confusion due to time zone crossing. See the CNS56 flight status page for this flight to view local times or setup timezone preferences in your user account.

Time Position Orientation Groundspeed Altitude Reporting Facility
EDT Latitude Longitude Course Direction KTS MPH feet Rate Location/Type
Sun 05:23:15 PM 34.2673 -77.9919 36° Northeast  Level FlightAware Approximate
Sun 05:24:26 PM 34.3367 -77.9311 269° West 151 174 3,500  Level Washington Center
Sun 05:25:27 PM 34.3356 -77.9914 269° West 150 173 5,000 1,426 Climbing Washington Center
Sun 05:26:28 PM 34.3344 -78.0492 266° West 163 188 6,400 1,373 Climbing Washington Center
Sun 05:27:25 PM 34.3311 -78.1069 266° West 168 193 7,700 1,271 Climbing Washington Center
Sun 05:28:26 PM 34.3278 -78.1647 266° West 179 206 8,900 1,180 Climbing Washington Center
Sun 05:29:27 PM 34.3244 -78.2222 266° West 179 206 10,100 1,140 Climbing Washington Center
Sun 05:30:27 PM 34.3211 -78.2775 267° West 179 206 11,200 1,165 Climbing Washington Center
Sun 05:31:10 PM 34.3189 -78.3219 268° West 180 207 12,100 1,107 Climbing Jacksonville Center
Sun 05:32:10 PM 34.3169 -78.3775 264° West 180 207 13,100 1,000 Climbing Jacksonville Center
Sun 05:33:10 PM 34.3125 -78.4331 265° West 180 207 14,100 900 Climbing Jacksonville Center
Sun 05:34:10 PM 34.3083 -78.4911 265° West 180 207 14,900 800 Climbing Jacksonville Center
Sun 05:35:10 PM 34.3042 -78.5542 268° West 180 207 15,700 800 Climbing Jacksonville Center
Sun 05:36:10 PM 34.3022 -78.6169 268° West 180 207 16,500 750 Climbing Jacksonville Center
Sun 05:37:10 PM 34.3003 -78.6800 263° West 185 213 17,200 700 Climbing Jacksonville Center
Sun 05:38:10 PM 34.2939 -78.7456 266° West 190 219 17,900 600 Climbing Jacksonville Center
Sun 05:39:10 PM 34.2900 -78.8111 268° West 196 226 18,400 600 Climbing Jacksonville Center
Sun 05:40:10 PM 34.2878 -78.8742 264° West 196 226 19,100 650 Climbing Jacksonville Center
Sun 05:41:10 PM 34.2817 -78.9422 266° West 201 231 19,700 450 Climbing Jacksonville Center
Sun 05:42:10 PM 34.2775 -79.0103 266° West 201 231 20,000 150 Climbing Jacksonville Center
Sun 05:43:10 PM 34.2733 -79.0858 265° West 207 238 20,000  Level Jacksonville Center
Sun 05:44:10 PM 34.2675 -79.1639 261° West 227 261 20,000  Level Jacksonville Center
Sun 05:45:10 PM 34.2572 -79.2422 260° West 238 274 20,000  Level Jacksonville Center
Sun 05:46:10 PM 34.2450 -79.3231 256° West 244 281 20,000  Level Jacksonville Center
Sun 05:47:10 PM 34.2283 -79.4017 256° West 239 275 20,000  Level Jacksonville Center
Sun 05:48:10 PM 34.2117 -79.4800 260° West 234 269 20,000  Level Jacksonville Center
Sun 05:49:10 PM 34.2011 -79.5558 256° West 245 282 20,000  Level Jacksonville Center
Sun 05:50:10 PM 34.1844 -79.6369 260° West 237 273 20,000  Level Jacksonville Center
Sun 05:51:10 PM 34.1739 -79.7100 256° West 243 280 20,000  Level Jacksonville Center
Sun 05:52:10 PM 34.1592 -79.7833 258° West 243 280 20,000  Level Jacksonville Center
Sun 05:53:10 PM 34.1444 -79.8642 258° West 243 280 20,000  Level Jacksonville Center
Sun 05:54:10 PM 34.1314 -79.9397 257° West 243 280 20,000  Level Jacksonville Center
Sun 05:55:10 PM 34.1167 -80.0156 259° West 243 280 20,000  Level Jacksonville Center
Sun 05:56:10 PM 34.1036 -80.0939 257° West 243 280 20,000  Level Jacksonville Center
Sun 05:57:10 PM 34.0886 -80.1694 258° West 243 280 20,000  Level Jacksonville Center
Sun 05:58:10 PM 34.0756 -80.2425 257° West 243 280 20,000  Level Jacksonville Center
Sun 05:59:10 PM 34.0606 -80.3233 258° West 243 280 20,000  Level Jacksonville Center
Sun 06:00:10 PM 34.0475 -80.3989 257° West 243 280 20,000  Level Jacksonville Center
Sun 06:01:10 PM 34.0325 -80.4769 258° West 243 280 20,000  Level Jacksonville Center
Sun 06:02:10 PM 34.0192 -80.5525 258° West 243 280 20,000  Level Jacksonville Center
Sun 06:03:10 PM 34.0058 -80.6281 257° West 238 274 20,000  Level Jacksonville Center
Sun 06:04:10 PM 33.9906 -80.7058 259° West 238 274 20,000  Level Jacksonville Center
Sun 06:05:10 PM 33.9775 -80.7839 256° West 238 274 20,000  Level Jacksonville Center
Sun 06:06:10 PM 33.9619 -80.8594 256° West 238 274 20,000  Level Jacksonville Center
Sun 06:07:10 PM 33.9464 -80.9350 259° West 243 280 20,000  Level Jacksonville Center
Sun 06:08:10 PM 33.9331 -81.0153 254° West 243 280 20,000  Level Jacksonville Center
Sun 06:09:10 PM 33.9153 -81.0883 260° West 243 280 20,000  Level Jacksonville Center
Sun 06:10:10 PM 33.9039 -81.1686 256° West 243 280 20,000  Level Jacksonville Center
Sun 06:11:10 PM 33.8883 -81.2439 256° West 243 280 20,000  Level Jacksonville Center
Sun 06:12:10 PM 33.8725 -81.3217 256° West 243 280 20,000  Level Jacksonville Center
Sun 06:14:29 PM 33.8350 -81.5081 256° West 241 277 20,000  Level Atlanta Center
Sun 06:15:28 PM 33.8197 -81.5833 256° West 241 277 20,000  Level Atlanta Center
Sun 06:16:28 PM 33.8044 -81.6589 257° West 241 277 20,000  Level Atlanta Center
Sun 06:17:28 PM 33.7894 -81.7392 256° West 241 277 20,000  Level Atlanta Center
Sun 06:18:28 PM 33.7742 -81.8147 257° West 241 277 20,000  Level Atlanta Center
Sun 06:19:28 PM 33.7589 -81.8925 257° West 241 277 20,000 -200 Level Atlanta Center
Sun 06:20:28 PM 33.7453 -81.9628 256° West 241 277 19,600 -750 Descending Atlanta Center
Sun 06:21:28 PM 33.7281 -82.0481 257° West 253 291 18,500 -992 Descending Atlanta Center
Sun 06:22:29 PM 33.7106 -82.1383 273° West 265 305 17,600 -950 Descending Atlanta Center
Sun 06:23:28 PM 33.7142 -82.2308 277° West 270 311 16,600 -555 Descending Atlanta Center
Sun 06:24:28 PM 33.7239 -82.3281 274° West 275 316 16,500 -50 Descending Atlanta Center
Sun 06:25:28 PM 33.7292 -82.4103 276° West 264 304 16,500  Level Atlanta Center
Sun 06:26:28 PM 33.7364 -82.4925 278° West 256 295 16,500  Level Atlanta Center
Sun 06:27:28 PM 33.7458 -82.5697 273° West 251 289 16,500  Level Atlanta Center
Sun 06:28:28 PM 33.7489 -82.6522 276° West 251 289 16,500  Level Atlanta Center
Sun 06:29:28 PM 33.7561 -82.7344 277° West 251 289 16,500  Level Atlanta Center
Sun 06:30:28 PM 33.7631 -82.8044 276° West 251 289 16,500  Level Atlanta Center
Sun 06:31:28 PM 33.7700 -82.8867 276° West 251 289 16,500  Level Atlanta Center
Sun 06:32:28 PM 33.7769 -82.9642 278° West 251 289 16,500  Level Atlanta Center
Sun 06:33:28 PM 33.7861 -83.0439 274° West 251 289 16,500  Level Atlanta Center
Sun 06:34:28 PM 33.7908 -83.1264 274° West 251 289 16,500  Level Atlanta Center
Sun 06:35:28 PM 33.7956 -83.2089 276° West 251 289 16,500  Level Atlanta Center
Sun 06:36:28 PM 33.8025 -83.2939 276° West 251 289 16,500  Level Atlanta Center
Sun 06:37:28 PM 33.8092 -83.3764 274° West 251 289 16,500 -450 Level Atlanta Center
Sun 06:38:28 PM 33.8136 -83.4586 275° West 251 289 15,600 -1,200 Descending Atlanta Center
Sun 06:39:28 PM 33.8203 -83.5461 275° West 256 295 14,100 -1,550 Descending Atlanta Center
Sun 06:40:28 PM 33.8269 -83.6311 276° West 251 289 12,500 -1,700 Descending Atlanta Center
Sun 06:41:28 PM 33.8333 -83.7086 276° West 251 289 10,700 -1,800 Descending Atlanta Center
Sun 06:42:28 PM 33.8400 -83.7861 276° West 241 277 8,900 -1,900 Descending Atlanta Center
Sun 06:43:28 PM 33.8464 -83.8586 274° West 231 266 6,900 -1,950 Descending Atlanta Center
Sun 06:44:28 PM 33.8506 -83.9336 279° West 231 266 5,000 -1,150 Descending Atlanta Center
Sun 06:45:28 PM 33.8589 -83.9989 278° West 213 245 4,600 -550 Descending Atlanta Center
Sun 06:46:28 PM 33.8653 -84.0564 290° West 202 232 3,900 -541 Descending Atlanta Center
Sun 06:47:19 PM 33.8833 -84.1167 270° West 183 211 3,600 -162 Descending Atlanta TRACON
Sun 06:48:19 PM 33.8833 -84.1833 287° West 191 220 3,600 -524 Level Atlanta TRACON
Sun 06:49:25 PM 33.9000 -84.2500 270° West 184 212 2,500 -1,000 Descending Atlanta TRACON
Sun 06:50:25 PM 33.9000 -84.2833 270° West 123 142 1,500 -1,000 Descending Atlanta TRACON

Login

Don't have an account? Register now (free) for customized features, flight alerts, and more!